createdAt,value
2023-04-28T00:01:46.149Z,22.60
2023-04-28T00:04:13.629Z,22.60
2023-04-28T00:06:41.254Z,22.60
2023-04-28T00:09:12.141Z,22.60
2023-04-28T00:11:39.267Z,22.60
2023-04-28T00:14:06.572Z,22.60
2023-04-28T00:16:33.672Z,22.60
2023-04-28T00:19:00.835Z,22.70
2023-04-28T00:21:28.908Z,22.70
2023-04-28T00:23:56.375Z,22.70
2023-04-28T00:26:23.577Z,22.70
2023-04-28T00:28:50.804Z,22.60
2023-04-28T00:31:17.946Z,22.60
2023-04-28T00:33:45.534Z,22.60
2023-04-28T00:36:12.899Z,22.60
2023-04-28T00:38:40.185Z,22.60
2023-04-28T00:41:09.615Z,22.60
2023-04-28T00:43:48.960Z,22.60
2023-04-28T00:46:23.531Z,22.60
2023-04-28T00:48:51.215Z,22.60
2023-04-28T00:51:18.308Z,22.60
2023-04-28T00:53:45.825Z,22.60
2023-04-28T00:56:13.125Z,22.60
2023-04-28T00:58:40.640Z,22.60
2023-04-28T01:01:09.275Z,22.60
2023-04-28T01:03:38.531Z,22.60
2023-04-28T01:06:07.188Z,22.60
2023-04-28T01:08:36.705Z,22.60
2023-04-28T01:11:03.887Z,22.60
2023-04-28T01:13:31.015Z,22.60
2023-04-28T01:15:58.304Z,22.60
2023-04-28T01:18:26.115Z,22.50
2023-04-28T01:20:53.221Z,22.60
2023-04-28T01:23:20.397Z,22.50
2023-04-28T01:25:47.525Z,22.50
2023-04-28T01:28:14.711Z,22.50
2023-04-28T01:30:41.919Z,22.50
2023-04-28T01:33:09.128Z,22.50
2023-04-28T01:35:36.526Z,22.50
2023-04-28T01:38:03.680Z,22.50
2023-04-28T01:40:32.076Z,22.50
2023-04-28T01:42:59.128Z,22.50
2023-04-28T01:45:26.237Z,22.50
2023-04-28T01:47:53.387Z,22.50
2023-04-28T01:50:20.574Z,22.50
2023-04-28T01:52:47.608Z,22.50
2023-04-28T01:55:14.787Z,22.50
2023-04-28T01:57:41.944Z,22.50
2023-04-28T02:00:09.674Z,22.50
2023-04-28T02:02:37.157Z,22.40
2023-04-28T02:05:04.492Z,22.50
2023-04-28T02:07:31.819Z,22.50
2023-04-28T02:09:58.858Z,22.40
2023-04-28T02:12:25.983Z,22.40
2023-04-28T02:14:53.388Z,22.50
2023-04-28T02:17:20.541Z,22.40
2023-04-28T02:19:47.645Z,22.40
2023-04-28T02:22:14.709Z,22.40
2023-04-28T02:24:41.776Z,22.40
2023-04-28T02:27:09.787Z,22.40
2023-04-28T02:29:36.892Z,22.40
2023-04-28T02:32:04.694Z,22.40
2023-04-28T02:34:31.763Z,22.40
2023-04-28T02:36:58.806Z,22.40
2023-04-28T02:39:27.339Z,22.40
2023-04-28T02:41:54.427Z,22.40
2023-04-28T02:44:21.992Z,22.40
2023-04-28T02:46:49.119Z,22.40
2023-04-28T02:49:16.350Z,22.40
2023-04-28T02:51:43.388Z,22.40
2023-04-28T02:54:10.464Z,22.40
2023-04-28T02:56:38.216Z,22.40
2023-04-28T02:59:05.323Z,22.40
2023-04-28T03:01:32.434Z,22.40
2023-04-28T03:03:59.625Z,22.30
2023-04-28T03:06:26.896Z,22.40
2023-04-28T03:08:55.261Z,22.30
2023-04-28T03:11:22.333Z,22.30
2023-04-28T03:13:49.440Z,22.30
2023-04-28T03:16:16.796Z,22.30
2023-04-28T03:18:43.947Z,22.30
2023-04-28T03:21:11.074Z,22.30
2023-04-28T03:23:38.181Z,22.30
2023-04-28T03:26:05.331Z,22.30
2023-04-28T03:28:32.530Z,22.30
2023-04-28T03:30:59.836Z,22.30
2023-04-28T03:33:26.980Z,22.40
2023-04-28T03:35:54.482Z,22.40
2023-04-28T03:38:22.729Z,22.40
2023-04-28T03:40:49.789Z,22.40
2023-04-28T03:43:17.364Z,22.40
2023-04-28T03:45:44.571Z,22.40
2023-04-28T03:48:11.800Z,22.40
2023-04-28T03:50:41.074Z,22.40
2023-04-28T03:53:08.429Z,22.40
2023-04-28T03:55:35.696Z,22.40
2023-04-28T03:58:03.114Z,22.40
2023-04-28T04:00:30.215Z,22.40
2023-04-28T04:02:57.489Z,22.40
2023-04-28T04:05:25.079Z,22.40
2023-04-28T04:07:52.171Z,22.30
2023-04-28T04:10:19.291Z,22.40
2023-04-28T04:12:46.513Z,22.40
2023-04-28T04:15:13.836Z,22.40
2023-04-28T04:17:41.069Z,22.40
2023-04-28T04:20:08.772Z,22.40
2023-04-28T04:22:36.605Z,22.40
2023-04-28T04:25:03.858Z,22.40
2023-04-28T04:27:31.089Z,22.40
2023-04-28T04:29:58.500Z,22.40
2023-04-28T04:32:25.695Z,22.40
2023-04-28T04:34:52.780Z,22.40
2023-04-28T04:37:19.921Z,22.40
2023-04-28T04:39:47.036Z,22.50
2023-04-28T04:42:24.099Z,22.50
2023-04-28T04:44:52.742Z,22.50
2023-04-28T04:47:19.890Z,22.50
2023-04-28T04:49:48.088Z,22.50
2023-04-28T04:52:15.185Z,22.50
2023-04-28T04:54:42.311Z,22.50
2023-04-28T04:57:09.884Z,22.50
2023-04-28T04:59:36.957Z,22.60
2023-04-28T05:02:04.256Z,22.50
2023-04-28T05:04:31.516Z,22.50
2023-04-28T05:06:58.814Z,22.60
2023-04-28T05:09:26.238Z,22.60
2023-04-28T05:11:53.386Z,22.60
2023-04-28T05:14:20.550Z,22.60
2023-04-28T05:16:47.723Z,22.60
2023-04-28T05:19:15.166Z,22.60
2023-04-28T05:21:42.228Z,22.60
2023-04-28T05:24:09.357Z,22.70
2023-04-28T05:26:37.064Z,22.70
2023-04-28T05:29:04.643Z,22.80
2023-04-28T05:31:32.865Z,22.80
2023-04-28T05:34:00.025Z,22.80
2023-04-28T05:36:27.379Z,22.90
2023-04-28T05:38:54.553Z,22.90
2023-04-28T05:41:21.704Z,22.90
2023-04-28T05:43:51.313Z,22.90
2023-04-28T05:46:29.982Z,23.00
2023-04-28T05:48:58.528Z,23.00
2023-04-28T05:51:25.583Z,23.00
2023-04-28T05:53:53.218Z,23.10
2023-04-28T05:56:20.711Z,23.20
2023-04-28T05:58:49.810Z,23.20
2023-04-28T06:01:17.540Z,23.20
2023-04-28T06:03:45.514Z,23.30
2023-04-28T06:06:13.936Z,23.30
2023-04-28T06:08:41.402Z,23.40
2023-04-28T06:11:08.575Z,23.40
2023-04-28T06:13:35.666Z,23.40
2023-04-28T06:16:02.961Z,23.40
2023-04-28T06:18:34.166Z,23.50
2023-04-28T06:21:01.577Z,23.60
2023-04-28T06:23:28.688Z,23.60
2023-04-28T06:25:56.281Z,23.70
2023-04-28T06:28:23.779Z,23.70
2023-04-28T06:30:51.228Z,23.80
2023-04-28T06:33:18.342Z,23.80
2023-04-28T06:35:45.597Z,23.90
2023-04-28T06:38:12.770Z,23.90
2023-04-28T06:40:41.005Z,24.00
2023-04-28T06:43:08.106Z,24.00
2023-04-28T06:45:35.444Z,24.10
2023-04-28T06:48:02.699Z,24.10
2023-04-28T06:50:29.779Z,24.20
2023-04-28T06:52:58.940Z,24.20
2023-04-28T06:55:27.341Z,24.30
2023-04-28T06:57:54.752Z,24.30
2023-04-28T07:00:22.178Z,24.30
2023-04-28T07:02:49.458Z,24.40
2023-04-28T07:05:17.727Z,24.40
2023-04-28T07:07:45.265Z,24.40
2023-04-28T07:10:13.522Z,24.50
2023-04-28T07:12:41.389Z,24.50
2023-04-28T07:15:10.171Z,24.50
2023-04-28T07:17:38.610Z,24.50
2023-04-28T07:20:07.104Z,24.60
2023-04-28T07:22:34.243Z,24.60
2023-04-28T07:25:01.350Z,24.70
2023-04-28T07:27:28.557Z,24.70
2023-04-28T07:29:56.769Z,24.70
2023-04-28T07:32:24.627Z,24.80
2023-04-28T07:34:51.896Z,24.80
2023-04-28T07:37:19.460Z,24.90
2023-04-28T07:39:47.424Z,24.90
2023-04-28T07:42:15.484Z,24.90
2023-04-28T07:44:42.634Z,24.90
2023-04-28T07:47:09.826Z,24.90
2023-04-28T07:49:37.126Z,25.00
2023-04-28T07:52:04.270Z,24.90
2023-04-28T07:54:32.282Z,25.00
2023-04-28T07:57:00.110Z,25.00
2023-04-28T07:59:27.316Z,25.10
2023-04-28T08:01:54.520Z,25.10
2023-04-28T08:04:22.227Z,25.10
2023-04-28T08:06:50.024Z,25.10
2023-04-28T08:09:17.272Z,25.10
2023-04-28T08:11:44.389Z,25.10
2023-04-28T08:14:11.605Z,25.10
2023-04-28T08:16:41.491Z,25.10
2023-04-28T08:19:09.504Z,25.10
2023-04-28T08:21:36.793Z,25.10
2023-04-28T08:24:04.009Z,25.20
2023-04-28T08:26:31.493Z,25.10
2023-04-28T08:28:58.586Z,25.10
2023-04-28T08:31:26.709Z,25.10
2023-04-28T08:33:55.563Z,25.10
2023-04-28T08:36:31.972Z,25.10
2023-04-28T08:39:01.345Z,25.10
2023-04-28T08:41:32.081Z,25.20
2023-04-28T08:43:59.513Z,25.20
2023-04-28T08:46:28.281Z,25.20
2023-04-28T08:49:01.924Z,25.20
2023-04-28T08:51:45.023Z,25.10
2023-04-28T08:54:25.266Z,25.20
2023-04-28T08:56:53.460Z,25.20
2023-04-28T08:59:21.597Z,25.20
2023-04-28T09:01:50.647Z,25.20
2023-04-28T09:04:19.314Z,25.20
2023-04-28T09:06:46.973Z,25.30
2023-04-28T09:09:25.735Z,25.30
2023-04-28T09:12:01.439Z,25.30
2023-04-28T09:14:30.320Z,25.40
2023-04-28T09:16:58.553Z,25.40
2023-04-28T09:19:34.685Z,25.40
2023-04-28T09:22:13.837Z,25.40
2023-04-28T09:24:50.570Z,25.50
2023-04-28T09:27:28.268Z,25.50
2023-04-28T09:29:55.617Z,25.50
2023-04-28T09:32:24.876Z,25.60
2023-04-28T09:34:54.676Z,25.60
2023-04-28T09:37:24.090Z,25.60
2023-04-28T09:39:54.368Z,25.60
2023-04-28T09:42:40.202Z,25.60
2023-04-28T09:45:09.422Z,25.70
2023-04-28T09:47:39.397Z,25.70
2023-04-28T09:50:15.313Z,25.70
2023-04-28T09:52:49.378Z,25.70
2023-04-28T09:55:17.931Z,25.70
2023-04-28T09:57:48.668Z,25.70
2023-04-28T10:00:18.964Z,25.80
2023-04-28T10:02:47.727Z,25.80
2023-04-28T10:05:17.406Z,25.80
2023-04-28T10:07:45.308Z,25.80
2023-04-28T10:10:15.012Z,25.80
2023-04-28T10:12:44.196Z,25.80
2023-04-28T10:15:13.659Z,25.90
2023-04-28T10:17:41.134Z,25.90
2023-04-28T10:20:09.243Z,25.90
2023-04-28T10:23:07.225Z,25.90
2023-04-28T10:25:37.202Z,25.90
2023-04-28T10:28:09.307Z,25.90
2023-04-28T10:30:38.129Z,25.90
2023-04-28T10:33:27.091Z,25.90
2023-04-28T10:35:54.778Z,26.00
2023-04-28T10:38:22.106Z,26.00
2023-04-28T10:40:50.914Z,26.00
2023-04-28T10:43:38.109Z,25.90
2023-04-28T10:46:06.884Z,25.90
2023-04-28T10:48:54.580Z,25.90
2023-04-28T10:51:22.852Z,25.90
2023-04-28T10:54:10.177Z,25.90
2023-04-28T10:56:37.745Z,25.90
2023-04-28T10:59:26.766Z,25.90
2023-04-28T11:01:54.006Z,25.90
2023-04-28T11:04:21.853Z,25.90
2023-04-28T11:07:09.842Z,25.90
2023-04-28T11:09:49.948Z,25.90
2023-04-28T11:12:17.185Z,25.90
2023-04-28T11:14:44.650Z,25.90
2023-04-28T11:17:17.540Z,25.90
2023-04-28T11:19:46.095Z,25.90
2023-04-28T11:22:18.867Z,25.90
2023-04-28T11:25:01.035Z,25.90
2023-04-28T11:27:30.390Z,26.00
2023-04-28T11:29:57.771Z,26.00
2023-04-28T11:32:29.860Z,26.10
2023-04-28T11:34:58.200Z,26.10
2023-04-28T11:37:25.871Z,26.10
2023-04-28T11:39:53.722Z,26.20
2023-04-28T11:42:20.900Z,26.20
2023-04-28T11:44:55.646Z,26.20
2023-04-28T11:47:34.599Z,26.30
2023-04-28T11:50:03.504Z,26.30
2023-04-28T11:52:30.832Z,26.30
2023-04-28T11:55:01.139Z,26.30
2023-04-28T11:57:28.855Z,26.30
2023-04-28T12:00:14.728Z,26.40
2023-04-28T12:02:42.377Z,26.40
2023-04-28T12:05:11.634Z,26.40
2023-04-28T12:07:43.951Z,26.50
2023-04-28T12:10:13.813Z,26.50
2023-04-28T12:12:50.916Z,26.50
2023-04-28T12:15:22.192Z,26.50
2023-04-28T12:17:51.279Z,26.50
2023-04-28T12:20:39.458Z,26.60
2023-04-28T12:23:08.775Z,26.60
2023-04-28T12:25:44.940Z,26.50
2023-04-28T12:28:12.101Z,26.50
2023-04-28T12:30:42.076Z,26.50
2023-04-28T12:33:25.143Z,26.50
2023-04-28T12:35:55.285Z,26.50
2023-04-28T12:38:23.515Z,26.50
2023-04-28T12:40:50.638Z,26.50
2023-04-28T12:43:17.851Z,26.50
2023-04-28T12:45:45.101Z,26.50
2023-04-28T12:48:12.286Z,26.50
2023-04-28T12:50:39.486Z,26.50
2023-04-28T12:53:06.624Z,26.50
2023-04-28T12:55:33.797Z,26.50
2023-04-28T12:58:01.064Z,26.50
2023-04-28T13:00:28.186Z,26.50
2023-04-28T13:02:55.441Z,26.50
2023-04-28T13:05:22.584Z,26.50
2023-04-28T13:07:51.001Z,26.60
2023-04-28T13:10:19.116Z,26.60
2023-04-28T13:12:46.248Z,26.60
2023-04-28T13:15:13.463Z,26.60
2023-04-28T13:17:40.789Z,26.50
2023-04-28T13:20:08.790Z,26.50
2023-04-28T13:22:36.067Z,26.50
2023-04-28T13:25:02.986Z,26.50
2023-04-28T13:27:30.720Z,26.50
2023-04-28T13:30:00.880Z,26.50
2023-04-28T13:32:28.285Z,26.50
2023-04-28T13:34:55.640Z,26.40
2023-04-28T13:37:22.706Z,26.40
2023-04-28T13:39:49.866Z,26.40
2023-04-28T13:42:17.003Z,26.40
2023-04-28T13:44:44.253Z,26.40
2023-04-28T13:47:11.587Z,26.40
2023-04-28T13:49:39.997Z,26.30
2023-04-28T13:52:07.337Z,26.30
2023-04-28T13:54:34.532Z,26.30
2023-04-28T13:57:01.610Z,26.30
2023-04-28T13:59:28.711Z,26.30
2023-04-28T14:01:55.948Z,26.30
2023-04-28T14:04:23.346Z,26.30
2023-04-28T14:06:50.701Z,26.20
2023-04-28T14:09:17.830Z,26.20
2023-04-28T14:11:44.982Z,26.20
2023-04-28T14:14:12.254Z,26.20
2023-04-28T14:16:39.489Z,26.10
2023-04-28T14:19:07.428Z,26.10
2023-04-28T14:21:35.324Z,26.10
2023-04-28T14:24:02.368Z,26.10
2023-04-28T14:26:29.493Z,26.00
2023-04-28T14:28:56.842Z,26.00
2023-04-28T14:31:24.031Z,26.00
2023-04-28T14:33:51.098Z,25.90
2023-04-28T14:36:18.205Z,25.90
2023-04-28T14:38:45.391Z,25.90
2023-04-28T14:41:12.832Z,25.80
2023-04-28T14:43:40.246Z,25.80
2023-04-28T14:46:08.082Z,25.80
2023-04-28T14:48:36.258Z,25.80
2023-04-28T14:51:03.373Z,25.80
2023-04-28T14:53:30.595Z,25.80
2023-04-28T14:56:07.578Z,25.70
2023-04-28T14:58:44.717Z,25.70
2023-04-28T15:01:11.911Z,25.70
2023-04-28T15:03:39.508Z,25.70
2023-04-28T15:06:06.726Z,25.70
2023-04-28T15:08:33.878Z,25.70
2023-04-28T15:11:01.059Z,25.60
2023-04-28T15:13:28.779Z,25.60
2023-04-28T15:15:58.798Z,25.60
2023-04-28T15:18:25.974Z,25.60
2023-04-28T15:20:53.120Z,25.50
2023-04-28T15:23:20.454Z,25.50
2023-04-28T15:25:48.220Z,25.50
2023-04-28T15:28:15.292Z,25.50
2023-04-28T15:30:42.453Z,25.50
2023-04-28T15:33:09.532Z,25.40
2023-04-28T15:35:37.586Z,25.40
2023-04-28T15:38:04.702Z,25.40
2023-04-28T15:40:32.114Z,25.40
2023-04-28T15:42:59.270Z,25.40
2023-04-28T15:45:27.278Z,25.30
2023-04-28T15:47:55.199Z,25.30
2023-04-28T15:50:22.556Z,25.30
2023-04-28T15:52:50.252Z,25.20
2023-04-28T15:55:19.583Z,25.20
2023-04-28T15:57:47.584Z,25.20
2023-04-28T16:00:15.875Z,25.20
2023-04-28T16:02:43.899Z,25.10
2023-04-28T16:05:11.494Z,25.10
2023-04-28T16:07:40.871Z,25.10
2023-04-28T16:10:11.525Z,25.10
2023-04-28T16:12:39.633Z,25.10
2023-04-28T16:15:08.822Z,25.10
2023-04-28T16:17:38.312Z,25.10
2023-04-28T16:20:07.022Z,25.00
2023-04-28T16:22:35.094Z,25.00
2023-04-28T16:25:04.189Z,25.00
2023-04-28T16:27:32.198Z,25.00
2023-04-28T16:30:00.207Z,25.00
2023-04-28T16:32:27.394Z,24.90
2023-04-28T16:34:57.561Z,24.90
2023-04-28T16:37:24.994Z,24.90
2023-04-28T16:39:52.768Z,24.90
2023-04-28T16:42:23.262Z,24.90
2023-04-28T16:44:52.755Z,24.90
2023-04-28T16:47:20.333Z,24.90
2023-04-28T16:49:47.782Z,24.90
2023-04-28T16:52:15.018Z,24.80
2023-04-28T16:54:42.066Z,24.80
2023-04-28T16:57:09.310Z,24.80
2023-04-28T16:59:36.687Z,24.80
2023-04-28T17:02:04.239Z,24.80
2023-04-28T17:04:31.780Z,24.80
2023-04-28T17:06:59.645Z,24.70
2023-04-28T17:09:27.698Z,24.70
2023-04-28T17:11:55.136Z,24.70
2023-04-28T17:14:22.445Z,24.70
2023-04-28T17:16:49.770Z,24.70
2023-04-28T17:19:16.973Z,24.70
2023-04-28T17:21:45.232Z,24.70
2023-04-28T17:24:12.553Z,24.60
2023-04-28T17:26:39.741Z,24.60
2023-04-28T17:29:07.017Z,24.70
2023-04-28T17:31:34.912Z,24.60
2023-04-28T17:34:03.682Z,24.60
2023-04-28T17:36:32.310Z,24.60
2023-04-28T17:38:59.405Z,24.60
2023-04-28T17:41:26.795Z,24.60
2023-04-28T17:43:53.968Z,24.60
2023-04-28T17:46:22.285Z,24.60
2023-04-28T17:48:49.872Z,24.50
2023-04-28T17:51:17.853Z,24.50
2023-04-28T17:53:48.692Z,24.50
2023-04-28T17:56:16.544Z,24.50
2023-04-28T17:58:43.733Z,24.50
2023-04-28T18:01:10.873Z,24.40
2023-04-28T18:03:39.419Z,24.40
2023-04-28T18:06:08.131Z,24.30
2023-04-28T18:08:36.787Z,24.30
2023-04-28T18:11:04.292Z,24.30
2023-04-28T18:13:32.393Z,24.30
2023-04-28T18:16:00.240Z,24.20
2023-04-28T18:18:30.701Z,24.20
2023-04-28T18:21:00.432Z,24.20
2023-04-28T18:23:27.710Z,24.20
2023-04-28T18:25:54.878Z,24.20
2023-04-28T18:28:22.221Z,24.10
2023-04-28T18:30:49.471Z,24.10
2023-04-28T18:33:19.983Z,24.10
2023-04-28T18:35:49.376Z,24.10
2023-04-28T18:38:16.844Z,24.10
2023-04-28T18:40:44.268Z,24.00
2023-04-28T18:43:11.556Z,24.10
2023-04-28T18:45:41.414Z,24.00
2023-04-28T18:48:11.043Z,24.00
2023-04-28T18:50:39.548Z,24.00
2023-04-28T18:53:06.868Z,23.90
2023-04-28T18:55:34.078Z,24.00
2023-04-28T18:58:02.520Z,23.90
2023-04-28T19:00:30.316Z,23.90
2023-04-28T19:02:57.743Z,23.90
2023-04-28T19:05:25.993Z,23.90
2023-04-28T19:07:53.169Z,23.90
2023-04-28T19:10:20.256Z,23.90
2023-04-28T19:12:47.458Z,23.90
2023-04-28T19:15:14.818Z,23.90
2023-04-28T19:17:42.002Z,23.90
2023-04-28T19:20:09.636Z,23.90
2023-04-28T19:22:40.385Z,23.80
2023-04-28T19:25:08.610Z,23.80
2023-04-28T19:27:37.824Z,23.80
2023-04-28T19:30:06.648Z,23.80
2023-04-28T19:32:33.927Z,23.80
2023-04-28T19:35:02.434Z,23.80
2023-04-28T19:37:29.933Z,23.70
2023-04-28T19:39:57.190Z,23.70
2023-04-28T19:42:24.642Z,23.70
2023-04-28T19:44:55.978Z,23.70
2023-04-28T19:47:28.075Z,23.70
2023-04-28T19:49:55.657Z,23.70
2023-04-28T19:52:23.267Z,23.70
2023-04-28T19:54:50.944Z,23.70
2023-04-28T19:57:18.946Z,23.70
2023-04-28T19:59:47.642Z,23.70
2023-04-28T20:02:15.718Z,23.70
2023-04-28T20:04:43.122Z,23.60
2023-04-28T20:07:10.854Z,23.70
2023-04-28T20:09:39.089Z,23.60
2023-04-28T20:12:07.814Z,23.60
2023-04-28T20:14:35.767Z,23.60
2023-04-28T20:17:04.425Z,23.60
2023-04-28T20:19:31.840Z,23.60
2023-04-28T20:21:58.997Z,23.60
2023-04-28T20:24:26.268Z,23.60
2023-04-28T20:26:54.805Z,23.60
2023-04-28T20:29:22.089Z,23.60
2023-04-28T20:31:49.325Z,23.60
2023-04-28T20:34:17.417Z,23.60
2023-04-28T20:36:44.585Z,23.60
2023-04-28T20:39:11.910Z,23.60
2023-04-28T20:41:41.161Z,23.50
2023-04-28T20:44:08.729Z,23.50
2023-04-28T20:46:36.335Z,23.50
2023-04-28T20:49:04.522Z,23.50
2023-04-28T20:51:34.272Z,23.50
2023-04-28T20:54:01.882Z,23.50
2023-04-28T20:56:29.005Z,23.50
2023-04-28T20:58:56.208Z,23.50
2023-04-28T21:01:23.475Z,23.50
2023-04-28T21:03:50.784Z,23.50
2023-04-28T21:06:18.317Z,23.50
2023-04-28T21:08:45.573Z,23.50
2023-04-28T21:11:16.538Z,23.50
2023-04-28T21:13:44.625Z,23.50
2023-04-28T21:16:20.159Z,23.50
2023-04-28T21:18:49.418Z,23.50
2023-04-28T21:21:16.913Z,23.50
2023-04-28T21:23:44.438Z,23.40
2023-04-28T21:26:11.661Z,23.40
2023-04-28T21:28:40.130Z,23.40
2023-04-28T21:31:07.682Z,23.40
2023-04-28T21:33:34.852Z,23.40
2023-04-28T21:36:08.200Z,23.40
2023-04-28T21:38:37.326Z,23.40
2023-04-28T21:41:04.469Z,23.40
2023-04-28T21:43:31.534Z,23.40
2023-04-28T21:45:58.667Z,23.40
2023-04-28T21:48:25.856Z,23.40
2023-04-28T21:50:53.026Z,23.40
2023-04-28T21:53:20.714Z,23.40
2023-04-28T21:55:48.076Z,23.40
2023-04-28T21:58:15.350Z,23.40
2023-04-28T22:00:47.290Z,23.40
2023-04-28T22:03:15.472Z,23.40
2023-04-28T22:05:44.293Z,23.40
2023-04-28T22:08:11.640Z,23.40
2023-04-28T22:10:39.053Z,23.40
2023-04-28T22:13:06.795Z,23.40
2023-04-28T22:15:34.564Z,23.30
2023-04-28T22:18:01.957Z,23.40
2023-04-28T22:20:29.231Z,23.30
2023-04-28T22:22:57.729Z,23.30
2023-04-28T22:25:27.677Z,23.30
2023-04-28T22:27:54.834Z,23.30
2023-04-28T22:30:24.315Z,23.30
2023-04-28T22:32:52.878Z,23.30
2023-04-28T22:35:20.014Z,23.30
2023-04-28T22:37:47.080Z,23.30
2023-04-28T22:40:14.411Z,23.30
2023-04-28T22:42:42.628Z,23.30
2023-04-28T22:45:11.012Z,23.20
2023-04-28T22:47:39.773Z,23.20
2023-04-28T22:50:09.118Z,23.20
2023-04-28T22:52:36.695Z,23.20
2023-04-28T22:55:04.771Z,23.20
2023-04-28T22:57:31.873Z,23.20
2023-04-28T22:59:59.304Z,23.20
2023-04-28T23:02:26.632Z,23.20
2023-04-28T23:04:54.068Z,23.30
2023-04-28T23:07:21.278Z,23.30
2023-04-28T23:09:48.559Z,23.30
2023-04-28T23:12:15.794Z,23.30
2023-04-28T23:14:42.940Z,23.30
2023-04-28T23:17:10.015Z,23.30
2023-04-28T23:19:39.373Z,23.30
2023-04-28T23:22:08.120Z,23.30
2023-04-28T23:24:37.227Z,23.30
2023-04-28T23:27:05.092Z,23.30
2023-04-28T23:29:32.760Z,23.20
2023-04-28T23:31:59.950Z,23.20
2023-04-28T23:34:27.225Z,23.20
2023-04-28T23:36:54.372Z,23.30
2023-04-28T23:39:21.454Z,23.20
2023-04-28T23:41:48.488Z,23.20
2023-04-28T23:44:15.576Z,23.20
2023-04-28T23:46:42.912Z,23.20
2023-04-28T23:49:10.482Z,23.20
2023-04-28T23:51:37.578Z,23.20
2023-04-28T23:54:04.647Z,23.20
2023-04-28T23:56:31.809Z,23.20
2023-04-28T23:58:58.887Z,23.20
